Persoonlijke zone
Imprimable
Dinant, 29/08/2021, BEL - La Descente de la Lesse
Rapportenlijst > Delhalle - 20.75km - Resultaat
Zoek: Bladzijde: [1]
104 Inputs
 
Klachten worden niet meer geaccepteerd. Resultaten zijn definitief.
PlaatsNrNaamLeef.IOCLigaClubWerkelijkeTijdTkmGem.ScrPtsGemeente
1.6430MARMIGNON THIBAUT41BELARCH1:20:381:20:383:54 15.44141031LOYERS
2.410MOTTOUL VINCENT43BELVINOTHEQUE WANZE1:21:321:21:323:56 15.27171018ANTHEIT
3.6409DEMOULIN VINCENT49BELCOACHING ZONE TEAM1:22:011:22:013:58 15.18191012FLAWINNE
4.5602MAILLARD EMMANUEL46FRASOBHI SPORT NANTES1:22:491:22:494:00 15.03211001SAINT-HERBLAIN
5.5648ROJO CEBRECOS IGNACIO47ESP1:25:561:25:564:09 14.4924963LOUVAIN LA NEUVE
6.5639COLOMER JEAN-FRANÇOIS49FRAARCH1:27:211:27:214:13 14.2625946HAMOIS
7.603CORBUSIER PHILIPPE49BELLIFE SPORT1:27:261:27:264:13 14.2426945AMAY
8.6542DECAMP JÉRÔME42BEL1:28:041:28:044:15 14.1428936FOSSES-LA-VILLE
9.6319DE VOOGHT YVES40BELFLEU1:32:031:32:034:27 13.5347881GOUY-LEZ-PIETON
10.445RUELLE JEAN49BELUTTENJAMBEE1:32:421:32:424:28 13.4353871WEZEMBEEK-OPPEM
11.6468HEYMANS PETER43BEL1:32:471:32:474:29 13.4254869JETTE
12.6446VANSNICK FABIAN40BELRUNATTITUDE1:35:091:35:094:36 13.0963840GEMBLOUX
13.5570ROBIN MICHAEL42BELCAP BEAURAING1:35:121:35:124:36 13.0864838ACHENE
14.6282GUSTIN JÉRÔME45BELRCNAMUR1:35:241:35:244:36 13.0566835FLOREFFE
15.6431RIGUELLE FRANÇOIS40BELFLEUPOTOS ROSES1:35:271:35:274:36 13.0567834LIGNY
16.6289GODFROID ERIC49BEL1:35:351:35:354:37 13.0368832CHATELET
17.6601KUYPERS CHRISTOPHE45BELARCH1:35:351:35:354:37 13.0369831GESVES
18.6470DEFRANCE SÉBASTIEN43BEL1:35:391:35:394:37 13.0270830LOUVAIN-LA-NEUVE
19.5635SOLIGNAC OLIVIER49FRA0480041:36:001:36:004:38 12.9771826MENDE
20.6500LEVEZ GRÉGORY48BEL1:36:371:36:374:40 12.8972819CINEY
21.748SALAZAR NOEL48BELBXL RUN CREW1:37:041:37:044:41 12.8380810MOLENBEEK
22.5669SALOMEZ FREDERIK46BEL1:37:441:37:444:43 12.7482802HOLLEBEKE
23.6305LIPPOLIS DOMINIQUE49BEL1:37:581:37:584:44 12.7184798MAILLEN
24.5708DESILLE JÉRÉMIE43BEL1:38:011:38:014:44 12.7085797BELGRADE
25.6397DUBOIS PHILIPPE44BELOBJ1:38:071:38:074:44 12.6986796DOUR
26.6329MARCHI STEPHANE49BEL1:38:211:38:214:45 12.6691790ANDERLUES
27.5658RICHARD ULRICH47BELTEAM MARATHON1:38:521:38:524:46 12.5994783DINANT
28.612CHARLES CHRISTOPHE45BELCSFMYSTERE1:38:581:38:584:47 12.5896781FOREST
29.6574MATHIEU LAURENT46BELARCH1:38:591:38:594:47 12.5897780LISOGNE
30.6321ROMBOSTS ERIK48BELAVNAVN1:39:591:39:594:50 12.45101768
31.129MARTINEAU PHILIPPE43FRAGAG1:40:171:40:174:50 12.42102764GEMBLOUX
32.6326CANISIUS PIERRE-OLIVIER49BELNEW ÉLAN1:40:311:40:314:51 12.39104761VISÉ
33.620SCHOONJANS MICHEL48BELMYSTERE1:40:501:40:504:52 12.35106756UCCLE
34.6426TANG XIAOHUA40BEL1:41:041:41:044:53 12.32110752AUVELAIS
35.6311CHARLOTEAUX NICOLAS42BEL1:41:211:41:214:54 12.28112748MELLERY
36.594BOSSANT JEAN-FRANÇOIS46BELFER1:41:501:41:504:55 12.23115742VELLEREILLE-LE-SEC
37.6615CARNOY XAVIER48BEL1:42:251:42:254:57 12.16119733WAVRE
38.6331DELAFONTAINE SIMON40BEL1:42:581:42:584:58 12.09125724HABAY-LA-NEUVE
39.5686LATORRATA PIETRO48ITA1:43:501:43:505:01 11.99136709MONT SAINTE ALDEGONDE
40.6435GOUDEMANT ETIENNE49BELGTC1:45:411:45:415:06 11.78146686CORTIL-NOIRMONT
41.6550MOERMAN JONAS47BEL1:45:511:45:515:07 11.76148683LLN
42.6634GOUMET JOFFREY43BELNAC1:45:551:45:555:07 11.76149682ARQUENNES
43.69DOMINICY FRANÇOIS46BELMYSTERE1:46:021:46:025:07 11.74150681BRUXELLES
44.6318VAN CRAEN CHRISTOPHE40BEL1:46:141:46:145:08 11.72151678NOTHOMB
45.6302DETIGE RONALD43AND1:46:181:46:185:08 11.71152677SCHAARBEEK
46.6293FALISE VINCENT45BEL1:48:011:48:015:13 11.53165653PROFONDEVILLE
47.6292RINGOET NICO43BEL1:48:051:48:055:13 11.52166652HALLE
48.6600TENAUD VALENTIN41FRA1:48:231:48:235:14 11.49170647ANDENNE
49.6432ABRAHAM YANN48FRA1:48:291:48:295:14 11.48172645WOLUWE-SAINT-LAMBERT
50.6543ALLARD LAURENT47BELNAC1:48:311:48:315:14 11.47174643NIVELLES
51.5709BAUVIN BERTRAND41BEL1:49:071:49:075:16 11.41178635NAMUR
52.6529BARBUTO MICHEL47BELOBJOBJ1:49:151:49:155:16 11.40179634COLFONTAINE
53.6627COLSON LAURENT46BEL1:50:041:50:045:19 11.31184623MEAN
54.6366OLIVIER QUENTIN47BEL1:50:071:50:075:19 11.31185622WOLUWE
55.6332MARCHESE FABIAN49ITAOBJ1:51:311:51:315:23 11.16193605HON-HERGIES
56.6462DUMONT SYLVAIN46BELJCPMF1:52:341:52:345:26 11.06205589WÉPION
57.543LAFORGE FREDERIC46BELWACO1:53:111:53:115:28 11.00208581HANEFFE
58.6524DEWILDE DIMITRI45BEL1:53:251:53:255:28 10.98212577GREZ-DOICEAU
59.5679BLAIMONT CÉDRIC43BEL1:53:421:53:425:29 10.95214573MARCHE-EN-FAMENNE
60.791PIRENNE ANTOINE41BELCABWNAC1:54:081:54:085:30 10.91222565COURT-SAINT-ETIENNE
61.6361MICHAUX DIMITRI49BEL1:55:171:55:175:34 10.80239545TEMPLOUX
62.5638HASSAN KARIM43BEL1:56:301:56:305:37 10.69252526DINANT
63.263DELCHAMBRE FRÉDÉRIC48BELVINO TEAM1:56:311:56:315:37 10.69253526SERAING
64.6445JANDRAIN SÉBASTIEN41BEL1:57:011:57:015:39 10.64254521EMINES
65.969FRIPIAT DIDIER44BELRCNAMUR1:57:561:57:565:41 10.56265507NATOYE
66.5548KATSCHNIG XAVIER46FRA1:58:141:58:145:42 10.53269502DUNKERQUE
67.6303NDONGSON ALAIN42ITAKAMERUKAMERUN1:58:371:58:375:43 10.50273496SCHAERBEEK
68.731DEPOUILLE HENRI-FRANÇOIS43BELMYSTERE1:59:061:59:065:45 10.45280488NIVELLES
69.5577LEMAIRE JEANMARC46BEL1:59:091:59:095:45 10.45281487TRAZEGNIES
70.696LECLEF SEBASTIEN41BELCSFMYSTERE1:59:161:59:165:45 10.44283485FOREST
71.5688SPAEPEN FABIAN46BELSCUDERIA FERRARI2:00:072:00:075:48 10.36291472LEIGNON
72.591SERAFIN LORENZO42BEL2:00:112:00:115:48 10.36292472WAUDREZ
73.6438BRAFFORT FABRICE49BEL2:00:532:00:535:50 10.30300461HÉRON
74.5652LEGRAND JEAN-FRANCOIS44BEL2:01:432:01:435:52 10.23305451WIERDE
75.6453VERSCOORE DIMITRI48BELSKI CLUB EGHEZEE 1502:01:462:01:465:53 10.23306450EGHEZEE
76.6613CÔTE HENRY-FRANÇOIS44BEL2:02:022:02:025:53 10.20311445BARVAUX
77.6632BEER CHRISTOPHE49BELCEPAL2:02:102:02:105:54 10.19312443BRUXELLES
78.477FIASSE FRANÇOIS44BELHUYFOULÉES DU PLAISIR2:02:392:02:395:55 10.15316437OCQUIER
79.6425LEHANNE ERIC46BEL2:02:562:02:565:56 10.13321432MONT-SAINT-GUIBERT
80.6563BOITTE CÉDRIC45BELM.M.M.2:03:042:03:045:56 10.12324429MOUSCRON
81.940MAAS STIJN44BEL2:03:482:03:485:58 10.06330419JETTE
82.6344BONTEMS CHRISTOPHE49BEL2:06:412:06:416:07 9.83350384HÉRON
83.6330JACQUEMIN FRÉDÉRIC45BELCOMPAGNONS2:06:582:06:586:08 9.81351382COURT-SAINT-ETIENNE
84.6382DISY JEAN-PHILIPPE46BEL2:07:172:07:176:09 9.78354378MARCHE-LES-DAMES
85.514GREVISSE DAVID47BELRONVAU2:09:462:09:466:16 9.59369350DION VALMONT
86.6434SOTTIAUX XAVIER48BEL2:10:392:10:396:18 9.53377338HANZINNE
87.5564MARRAZZA RODOLPHE47BELARCH2:11:062:11:066:20 9.50380333SART-BERNARD
88.6608REMENDAER OLIVIER49BEL2:12:082:12:086:23 9.42392318WIHOGNE
89.5710GOFFOY LARRY41BELJCAI2:12:502:12:506:25 9.37402307NAMUR
90.6335VERDONCK JEAN-ALEXANDRE42BELSTIMUL'US2:14:492:14:496:30 9.24414285FORVILLE
91.5664JACQUEMIN MICHAEL46BELNAC2:16:412:16:416:36 9.11427263NIVELLES
92.6371DEBEUF CHRISTOPHE46BEL2:16:472:16:476:36 9.10429262LASNE
93.5578GALET CHRISTOPHE45BEL2:16:572:16:576:36 9.09431259HOUYET
94.144CORBIAUX CHRISTOPHE42BELRCNAMUR2:17:172:17:176:37 9.07437253FLAWINNE
95.5641EVRARD DAMIEN45BEL2:17:372:17:376:38 9.05443247GENDRON
96.5650PEETERS FRED42BEL2:18:532:18:536:42 8.96449234BOUGE
97.5671TIXHON AXEL49BEL2:19:062:19:066:43 8.95452231DINANT
98.6356VERHEIJEN STEF47NLDDE WITTE MEREL2:20:042:20:046:46 8.89461219EKEREN
99.5579GALET OLIVIER48BEL2:21:542:21:546:51 8.77468202DINANT
100.6565GARITTE FRANÇOIS46FRAM.M.M.2:24:102:24:106:57 8.64477181HOUPLINES
101.6377GUERMONPREZ PATRICK46BEL2:26:202:26:207:04 8.51485161WARISOULX
102.695DE DAPPER DAVID48BELCSFMYSTERE2:31:172:31:177:18 8.23503118BRUXELLES
103.6301ROBERT RAPHAEL47BEL2:32:402:32:407:22 8.16515102WAREMME
104.5589HURET GUILLAUME40FRA3:06:593:06:599:01 6.665441HAZEBROUCK
DNF: abandon; DSQ: disqualifié; Vitesse en km/h
Bladzijde: [1]